Main page
METAR-TAF:

METAR-TAF

Airports :

Melilla Airport

Melilla, Spain

latitude: 35-17N, longitude: 002-57W, elevation: 47 m

Current weather observation

The report was made 31 minutes ago, at 22:00 UTC
Wind 2 kt from variable directions
Temperature 13°C
Humidity 94%
Pressure 1025 hPa
Visibility 10 km or more

METAR: GEML 102200Z AUTO VRB02KT 9999 NCD 13/12 Q1025

Time: 23:31 (22:31 UTC)

Forecast

The report was made 2 hours and 31 minutes ago, at 20:00 UTC
Forecast valid from 10 at 21 UTC to 11 at 21 UTC
Wind 4 kt from the West
Visibility 10 km or more
no clouds below 1500 m and no cumulonimbus

TAF: GEML 102000Z 1021/1121 27004KT CAVOK TX19/1113Z TN11/1106Z

Weather observations and forecasts of more than 4000 airports (METAR and TAF reports).

The available stations are represented by yellow and red dots on the map.

Hover mouse over dot to see the name of the station.

Then click to see weather observations and forecasts.

To change the map : click on the green buttons with a black cross to zoom in, on the green button with a dash to zoom out, or on the green arrows for adjacent maps.


METAR-TAF: